createdAt,value
2017-09-29T00:00:46.368Z,3.86
2017-09-29T00:01:46.353Z,3.91
2017-09-29T00:02:46.339Z,3.86
2017-09-29T00:03:46.323Z,3.84
2017-09-29T00:04:46.309Z,3.86
2017-09-29T00:05:46.294Z,3.93
2017-09-29T00:06:46.279Z,3.90
2017-09-29T00:07:46.264Z,3.80
2017-09-29T00:08:46.248Z,3.80
2017-09-29T00:09:46.235Z,3.75
2017-09-29T00:10:46.220Z,3.73
2017-09-29T00:11:46.203Z,3.72
2017-09-29T00:12:46.189Z,3.76
2017-09-29T00:13:46.174Z,3.84
2017-09-29T00:14:46.159Z,3.79
2017-09-29T00:15:46.144Z,3.80
2017-09-29T00:16:46.130Z,3.87
2017-09-29T00:17:46.115Z,3.90
2017-09-29T00:18:46.350Z,3.93
2017-09-29T00:19:46.084Z,3.80
2017-09-29T00:20:46.069Z,3.80
2017-09-29T00:21:46.055Z,3.84
2017-09-29T00:22:46.040Z,3.88
2017-09-29T00:23:46.025Z,3.78
2017-09-29T00:24:46.010Z,3.78
2017-09-29T00:25:45.995Z,3.76
2017-09-29T00:26:45.980Z,3.84
2017-09-29T00:27:45.964Z,3.72
2017-09-29T00:28:45.950Z,3.83
2017-09-29T00:29:45.936Z,3.75
2017-09-29T00:30:45.920Z,3.86
2017-09-29T00:31:45.903Z,3.88
2017-09-29T00:32:45.895Z,3.80
2017-09-29T00:33:45.875Z,3.76
2017-09-29T00:34:45.862Z,3.72
2017-09-29T00:35:45.844Z,3.73
2017-09-29T00:36:45.829Z,3.80
2017-09-29T00:37:45.814Z,3.78
2017-09-29T00:38:45.800Z,3.80
2017-09-29T00:39:45.784Z,3.75
2017-09-29T00:40:45.768Z,3.78
2017-09-29T00:41:45.759Z,3.91
2017-09-29T00:42:45.740Z,3.80
2017-09-29T00:43:45.724Z,3.72
2017-09-29T00:44:45.714Z,3.78
2017-09-29T00:45:45.695Z,3.76
2017-09-29T00:46:45.680Z,3.73
2017-09-29T00:47:45.666Z,3.76
2017-09-29T00:48:45.650Z,3.80
2017-09-29T00:49:45.634Z,3.78
2017-09-29T00:50:45.620Z,3.83
2017-09-29T00:51:45.603Z,3.80
2017-09-29T00:52:45.588Z,3.96
2017-09-29T00:53:45.574Z,3.84
2017-09-29T00:54:45.558Z,3.72
2017-09-29T00:55:45.543Z,3.76
2017-09-29T00:56:45.529Z,3.79
2017-09-29T00:57:45.513Z,3.90
2017-09-29T00:58:45.499Z,3.87
2017-09-29T00:59:45.483Z,3.86
2017-09-29T01:00:45.469Z,3.91
2017-09-29T01:01:45.454Z,3.94
2017-09-29T01:02:45.440Z,3.91
2017-09-29T01:03:45.424Z,3.87
2017-09-29T01:04:45.408Z,3.88
2017-09-29T01:05:45.394Z,3.97
2017-09-29T01:06:45.379Z,3.79
2017-09-29T01:07:45.363Z,3.75
2017-09-29T01:08:45.381Z,3.86
2017-09-29T01:09:45.335Z,3.87
2017-09-29T01:10:45.320Z,3.90
2017-09-29T01:11:45.304Z,3.94
2017-09-29T01:12:45.289Z,3.91
2017-09-29T01:13:45.275Z,3.98
2017-09-29T01:14:45.260Z,3.97
2017-09-29T01:15:45.245Z,4.02
2017-09-29T01:16:45.230Z,4.06
2017-09-29T01:17:45.215Z,3.98
2017-09-29T01:18:45.200Z,4.00
2017-09-29T01:19:45.185Z,4.00
2017-09-29T01:20:45.171Z,3.88
2017-09-29T01:21:45.156Z,3.94
2017-09-29T01:22:45.142Z,4.08
2017-09-29T01:23:45.126Z,3.94
2017-09-29T01:24:45.111Z,3.96
2017-09-29T01:25:45.097Z,4.04
2017-09-29T01:26:45.082Z,3.98
2017-09-29T01:27:45.066Z,3.87
2017-09-29T01:28:45.053Z,3.84
2017-09-29T01:29:45.038Z,3.73
2017-09-29T01:30:45.028Z,3.75
2017-09-29T01:31:45.008Z,3.79
2017-09-29T01:32:44.993Z,3.76
2017-09-29T01:33:44.982Z,3.75
2017-09-29T01:34:44.974Z,3.72
2017-09-29T01:35:44.949Z,3.76
2017-09-29T01:36:44.934Z,3.78
2017-09-29T01:37:44.919Z,3.76
2017-09-29T01:38:44.905Z,3.72
2017-09-29T01:39:44.892Z,3.70
2017-09-29T01:40:44.874Z,3.73
2017-09-29T01:41:44.865Z,3.75
2017-09-29T01:42:44.845Z,3.88
2017-09-29T01:43:44.828Z,3.86
2017-09-29T01:44:44.815Z,3.80
2017-09-29T01:45:44.801Z,3.75
2017-09-29T01:46:44.787Z,3.75
2017-09-29T01:47:44.772Z,3.76
2017-09-29T01:48:44.756Z,3.87
2017-09-29T01:49:44.742Z,3.84
2017-09-29T01:50:44.728Z,3.94
2017-09-29T01:51:44.712Z,3.94
2017-09-29T01:52:44.698Z,3.90
2017-09-29T01:53:44.683Z,3.94
2017-09-29T01:54:44.671Z,3.94
2017-09-29T01:55:44.656Z,3.98
2017-09-29T01:56:44.639Z,3.94
2017-09-29T01:57:44.626Z,3.87
2017-09-29T01:58:44.610Z,3.93
2017-09-29T01:59:44.595Z,3.93
2017-09-29T02:00:44.581Z,3.86
2017-09-29T02:01:44.566Z,3.94
2017-09-29T02:02:44.581Z,3.98
2017-09-29T02:03:44.537Z,3.91
2017-09-29T02:04:44.522Z,4.00
2017-09-29T02:05:44.508Z,3.98
2017-09-29T02:06:44.494Z,4.11
2017-09-29T02:07:44.480Z,4.11
2017-09-29T02:08:44.464Z,4.24
2017-09-29T02:09:44.451Z,4.09
2017-09-29T02:10:44.437Z,4.09
2017-09-29T02:11:44.425Z,4.09
2017-09-29T02:12:44.408Z,4.23
2017-09-29T02:13:44.394Z,4.34
2017-09-29T02:14:44.381Z,4.11
2017-09-29T02:15:44.366Z,4.04
2017-09-29T02:16:44.351Z,4.04
2017-09-29T02:17:44.337Z,4.06
2017-09-29T02:18:44.324Z,4.09
2017-09-29T02:19:44.309Z,4.02
2017-09-29T02:20:44.296Z,3.98
2017-09-29T02:21:44.282Z,4.00
2017-09-29T02:22:44.268Z,3.93
2017-09-29T02:23:44.251Z,4.05
2017-09-29T02:24:44.239Z,4.04
2017-09-29T02:25:44.224Z,3.97
2017-09-29T02:26:44.210Z,4.00
2017-09-29T02:27:44.195Z,3.94
2017-09-29T02:28:44.185Z,3.97
2017-09-29T02:29:44.169Z,3.96
2017-09-29T02:30:44.154Z,3.98
2017-09-29T02:31:44.139Z,4.04
2017-09-29T02:32:44.124Z,3.90
2017-09-29T02:33:44.111Z,3.91
2017-09-29T02:34:44.097Z,3.83
2017-09-29T02:35:44.081Z,3.94
2017-09-29T02:36:44.067Z,3.84
2017-09-29T02:37:44.054Z,3.98
2017-09-29T02:38:44.040Z,3.96
2017-09-29T02:39:44.024Z,4.00
2017-09-29T02:40:44.011Z,3.98
2017-09-29T02:41:43.996Z,3.87
2017-09-29T02:42:43.983Z,3.84
2017-09-29T02:43:43.967Z,3.79
2017-09-29T02:44:43.956Z,3.88
2017-09-29T02:45:43.942Z,3.87
2017-09-29T02:46:43.925Z,3.90
2017-09-29T02:47:43.911Z,3.84
2017-09-29T02:48:43.896Z,3.80
2017-09-29T02:49:43.903Z,3.70
2017-09-29T02:50:43.868Z,3.73
2017-09-29T02:51:43.854Z,3.73
2017-09-29T02:52:43.840Z,3.69
2017-09-29T02:53:43.825Z,3.86
2017-09-29T02:54:43.811Z,3.69
2017-09-29T02:55:43.802Z,3.62
2017-09-29T02:56:43.782Z,3.60
2017-09-29T02:57:43.768Z,3.69
2017-09-29T02:58:43.754Z,3.66
2017-09-29T02:59:43.740Z,3.68
2017-09-29T03:00:43.735Z,3.57
2017-09-29T03:01:43.709Z,3.62
2017-09-29T03:02:43.700Z,3.61
2017-09-29T03:03:43.682Z,3.65
2017-09-29T03:04:43.667Z,3.70
2017-09-29T03:05:43.652Z,3.73
2017-09-29T03:06:43.639Z,3.66
2017-09-29T03:07:43.623Z,3.69
2017-09-29T03:08:43.608Z,3.69
2017-09-29T03:09:43.594Z,3.70
2017-09-29T03:10:43.580Z,3.61
2017-09-29T03:11:43.565Z,3.72
2017-09-29T03:12:43.551Z,3.68
2017-09-29T03:13:43.537Z,3.68
2017-09-29T03:14:43.523Z,3.66
2017-09-29T03:15:43.507Z,3.61
2017-09-29T03:16:43.492Z,3.68
2017-09-29T03:17:43.478Z,3.51
2017-09-29T03:18:43.465Z,3.65
2017-09-29T03:19:43.449Z,3.57
2017-09-29T03:20:43.434Z,3.48
2017-09-29T03:21:43.452Z,3.61
2017-09-29T03:22:43.408Z,3.61
2017-09-29T03:23:43.391Z,3.62
2017-09-29T03:24:43.377Z,3.62
2017-09-29T03:25:43.362Z,3.62
2017-09-29T03:26:43.347Z,3.52
2017-09-29T03:27:43.332Z,3.68
2017-09-29T03:28:43.317Z,3.70
2017-09-29T03:29:43.303Z,3.73
2017-09-29T03:30:43.289Z,3.73
2017-09-29T03:31:43.274Z,3.72
2017-09-29T03:32:43.264Z,3.68
2017-09-29T03:33:43.245Z,3.66
2017-09-29T03:34:43.230Z,3.69
2017-09-29T03:35:43.215Z,3.60
2017-09-29T03:36:43.201Z,3.62
2017-09-29T03:37:43.186Z,3.60
2017-09-29T03:38:43.173Z,3.70
2017-09-29T03:39:43.157Z,3.62
2017-09-29T03:40:43.144Z,3.72
2017-09-29T03:41:43.136Z,3.90
2017-09-29T03:42:43.118Z,3.83
2017-09-29T03:43:43.100Z,3.88
2017-09-29T03:44:43.084Z,3.87
2017-09-29T03:45:43.071Z,3.84
2017-09-29T03:46:43.057Z,3.88
2017-09-29T03:47:43.043Z,3.72
2017-09-29T03:48:43.029Z,3.83
2017-09-29T03:49:43.015Z,3.87
2017-09-29T03:50:43.003Z,3.88
2017-09-29T03:51:42.985Z,3.80
2017-09-29T03:52:42.971Z,3.86
2017-09-29T03:53:42.957Z,3.88
2017-09-29T03:54:42.942Z,3.97
2017-09-29T03:55:42.928Z,3.98
2017-09-29T03:56:42.914Z,3.97
2017-09-29T03:57:42.900Z,3.72
2017-09-29T03:58:42.886Z,3.70
2017-09-29T03:59:42.873Z,3.76
2017-09-29T04:00:42.858Z,3.87
2017-09-29T04:01:42.843Z,3.90
2017-09-29T04:02:42.829Z,3.93
2017-09-29T04:03:42.815Z,3.97
2017-09-29T04:04:42.800Z,3.97
2017-09-29T04:05:42.786Z,3.87
2017-09-29T04:06:42.772Z,3.87
2017-09-29T04:07:42.759Z,3.90
2017-09-29T04:08:42.745Z,3.98
2017-09-29T04:09:42.730Z,4.02
2017-09-29T04:10:42.717Z,4.11
2017-09-29T04:11:42.701Z,4.14
2017-09-29T04:12:42.688Z,4.11
2017-09-29T04:13:42.675Z,4.24
2017-09-29T04:14:42.666Z,4.15
2017-09-29T04:15:42.647Z,4.09
2017-09-29T04:16:42.633Z,4.00
2017-09-29T04:17:42.620Z,4.02
2017-09-29T04:18:42.605Z,4.09
2017-09-29T04:19:42.591Z,3.97
2017-09-29T04:20:42.578Z,4.04
2017-09-29T04:21:42.565Z,3.87
2017-09-29T04:22:42.552Z,3.79
2017-09-29T04:23:42.537Z,3.83
2017-09-29T04:24:42.524Z,3.88
2017-09-29T04:25:42.510Z,4.08
2017-09-29T04:26:42.496Z,4.12
2017-09-29T04:27:42.483Z,4.24
2017-09-29T04:28:42.471Z,4.37
2017-09-29T04:29:42.455Z,4.33
2017-09-29T04:30:42.443Z,4.27
2017-09-29T04:31:42.428Z,4.08
2017-09-29T04:32:42.415Z,3.93
2017-09-29T04:33:42.402Z,3.96
2017-09-29T04:34:42.388Z,3.91
2017-09-29T04:35:42.373Z,3.98
2017-09-29T04:36:42.360Z,4.04
2017-09-29T04:37:42.346Z,4.06
2017-09-29T04:38:42.333Z,4.05
2017-09-29T04:39:42.318Z,4.05
2017-09-29T04:40:42.306Z,3.97
2017-09-29T04:41:42.292Z,3.94
2017-09-29T04:42:42.278Z,3.86
2017-09-29T04:43:42.263Z,3.88
2017-09-29T04:44:42.250Z,3.79
2017-09-29T04:45:42.236Z,3.75
2017-09-29T04:46:42.222Z,3.69
2017-09-29T04:47:42.207Z,3.61
2017-09-29T04:48:42.194Z,3.60
2017-09-29T04:49:42.213Z,3.65
2017-09-29T04:50:42.166Z,3.68
2017-09-29T04:51:42.150Z,3.62
2017-09-29T04:52:42.137Z,3.65
2017-09-29T04:53:42.122Z,3.54
2017-09-29T04:54:42.108Z,3.70
2017-09-29T04:55:42.092Z,3.61
2017-09-29T04:56:42.078Z,3.57
2017-09-29T04:57:42.065Z,3.66
2017-09-29T04:58:42.055Z,3.60
2017-09-29T04:59:42.035Z,3.70
2017-09-29T05:02:41.994Z,3.58
2017-09-29T05:03:41.978Z,3.72
2017-09-29T05:04:41.964Z,3.80
2017-09-29T05:05:41.953Z,3.78
2017-09-29T05:06:41.935Z,3.76
2017-09-29T05:07:41.926Z,3.75
2017-09-29T05:08:41.906Z,3.69
2017-09-29T05:09:41.891Z,3.72
2017-09-29T05:10:41.877Z,3.73
2017-09-29T05:11:41.862Z,3.69
2017-09-29T05:12:41.847Z,3.83
2017-09-29T05:13:41.832Z,3.93
2017-09-29T05:14:41.818Z,4.00
2017-09-29T05:15:41.803Z,3.86
2017-09-29T05:16:41.789Z,3.88
2017-09-29T05:17:41.779Z,3.91
2017-09-29T05:18:41.760Z,3.76
2017-09-29T05:19:41.745Z,3.75
2017-09-29T05:20:41.735Z,3.73
2017-09-29T05:21:41.717Z,3.84
2017-09-29T05:22:41.704Z,4.14
2017-09-29T05:23:41.689Z,4.30
2017-09-29T05:24:41.674Z,4.20
2017-09-29T05:25:41.661Z,3.97
2017-09-29T05:26:41.648Z,4.02
2017-09-29T05:27:41.632Z,4.05
2017-09-29T05:28:41.618Z,4.22
2017-09-29T05:29:41.605Z,4.05
2017-09-29T05:30:41.591Z,3.84
2017-09-29T05:31:41.577Z,3.98
2017-09-29T05:32:41.564Z,3.75
2017-09-29T05:33:41.550Z,3.70
2017-09-29T05:34:41.535Z,3.68
2017-09-29T05:35:41.521Z,3.60
2017-09-29T05:36:41.507Z,3.69
2017-09-29T05:37:41.492Z,3.58
2017-09-29T05:38:41.478Z,3.72
2017-09-29T05:39:41.464Z,3.61
2017-09-29T05:40:41.450Z,3.68
2017-09-29T05:41:41.435Z,3.61
2017-09-29T05:42:41.421Z,3.61
2017-09-29T05:43:41.406Z,3.58
2017-09-29T05:44:41.391Z,3.72
2017-09-29T05:45:41.376Z,3.60
2017-09-29T05:46:41.370Z,3.58
2017-09-29T05:47:41.347Z,3.75
2017-09-29T05:48:41.333Z,3.73
2017-09-29T05:49:41.319Z,3.98
2017-09-29T05:50:41.311Z,3.98
2017-09-29T05:51:41.296Z,3.97
2017-09-29T05:52:41.275Z,3.94
2017-09-29T05:53:41.261Z,3.84
2017-09-29T05:54:41.248Z,3.83
2017-09-29T05:55:41.232Z,3.79
2017-09-29T05:56:41.218Z,3.78
2017-09-29T05:57:41.203Z,3.62
2017-09-29T05:58:41.190Z,3.58
2017-09-29T05:59:41.174Z,3.62
2017-09-29T06:00:41.162Z,3.68
2017-09-29T06:01:41.147Z,3.76
2017-09-29T06:02:41.133Z,3.87
2017-09-29T06:03:41.117Z,4.00
2017-09-29T06:04:41.102Z,4.06
2017-09-29T06:05:41.089Z,4.27
2017-09-29T06:06:41.074Z,4.37
2017-09-29T06:07:41.060Z,4.34
2017-09-29T06:08:41.045Z,4.27
2017-09-29T06:09:41.032Z,4.29
2017-09-29T06:10:41.018Z,4.29
2017-09-29T06:11:41.003Z,4.12
2017-09-29T06:12:40.990Z,4.29
2017-09-29T06:13:40.979Z,4.29
2017-09-29T06:14:40.969Z,4.42
2017-09-29T06:15:40.951Z,4.63
2017-09-29T06:16:40.934Z,4.73
2017-09-29T06:17:40.921Z,4.70
2017-09-29T06:18:40.907Z,4.60
2017-09-29T06:19:40.893Z,4.55
2017-09-29T06:20:40.881Z,4.47
2017-09-29T06:21:40.866Z,4.42
2017-09-29T06:22:40.854Z,4.23
2017-09-29T06:23:40.840Z,4.24
2017-09-29T06:24:40.826Z,4.30
2017-09-29T06:25:40.813Z,4.58
2017-09-29T06:26:40.799Z,4.70
2017-09-29T06:27:40.785Z,4.78
2017-09-29T06:28:40.771Z,4.84
2017-09-29T06:29:40.763Z,4.77
2017-09-29T06:30:40.747Z,4.91
2017-09-29T06:31:40.730Z,5.04
2017-09-29T06:32:40.717Z,5.22
2017-09-29T06:33:40.710Z,5.33
2017-09-29T06:34:40.691Z,5.57
2017-09-29T06:35:40.677Z,5.46
2017-09-29T06:36:40.664Z,5.45
2017-09-29T06:37:40.651Z,5.54
2017-09-29T06:38:40.639Z,5.65
2017-09-29T06:39:40.624Z,5.45
2017-09-29T06:40:40.612Z,5.39
2017-09-29T06:41:40.599Z,5.45
2017-09-29T06:42:40.586Z,5.35
2017-09-29T06:43:40.572Z,5.17
2017-09-29T06:44:40.563Z,5.06
2017-09-29T06:45:40.548Z,5.07
2017-09-29T06:46:40.534Z,5.20
2017-09-29T06:47:40.521Z,5.27
2017-09-29T06:48:40.511Z,5.24
2017-09-29T06:49:40.495Z,5.07
2017-09-29T06:50:40.482Z,4.89
2017-09-29T06:51:40.471Z,4.67
2017-09-29T06:52:40.455Z,4.63
2017-09-29T06:53:40.443Z,4.62
2017-09-29T06:54:40.429Z,4.65
2017-09-29T06:55:40.416Z,4.62
2017-09-29T06:56:40.402Z,4.58
2017-09-29T06:57:40.388Z,4.54
2017-09-29T06:58:40.375Z,4.51
2017-09-29T06:59:40.362Z,4.42
2017-09-29T07:00:40.349Z,4.42
2017-09-29T07:01:40.335Z,4.29
2017-09-29T07:02:40.323Z,4.14
2017-09-29T07:03:40.309Z,4.23
2017-09-29T07:04:40.295Z,4.30
2017-09-29T07:05:40.280Z,4.36
2017-09-29T07:06:40.266Z,4.41
2017-09-29T07:07:40.254Z,4.42
2017-09-29T07:08:40.239Z,4.48
2017-09-29T07:09:40.225Z,4.48
2017-09-29T07:10:40.218Z,4.37
2017-09-29T07:11:40.198Z,4.37
2017-09-29T07:12:40.185Z,4.42
2017-09-29T07:13:40.170Z,4.51
2017-09-29T07:14:40.157Z,4.55
2017-09-29T07:15:40.142Z,4.84
2017-09-29T07:16:40.132Z,4.84
2017-09-29T07:17:40.115Z,4.99
2017-09-29T07:18:40.101Z,5.04
2017-09-29T07:19:40.089Z,5.46
2017-09-29T07:20:40.076Z,5.83
2017-09-29T07:21:40.061Z,5.89
2017-09-29T07:22:40.048Z,6.01
2017-09-29T07:23:40.035Z,6.06
2017-09-29T07:24:40.021Z,5.96
2017-09-29T07:25:40.014Z,5.86
2017-09-29T07:26:39.996Z,5.96
2017-09-29T07:27:39.984Z,6.04
2017-09-29T07:28:39.969Z,5.96
2017-09-29T07:29:39.956Z,5.93
2017-09-29T07:30:39.946Z,5.85
2017-09-29T07:31:39.931Z,5.71
2017-09-29T07:32:39.919Z,5.68
2017-09-29T07:33:39.906Z,5.51
2017-09-29T07:34:39.897Z,5.56
2017-09-29T07:35:39.880Z,5.49
2017-09-29T07:36:39.868Z,5.27
2017-09-29T07:37:39.856Z,5.02
2017-09-29T07:38:39.843Z,4.85
2017-09-29T07:39:39.830Z,5.00
2017-09-29T07:40:39.818Z,5.02
2017-09-29T07:41:39.805Z,5.18
2017-09-29T07:42:39.792Z,5.21
2017-09-29T07:43:39.779Z,5.24
2017-09-29T07:44:39.766Z,4.99
2017-09-29T07:45:39.754Z,4.88
2017-09-29T07:46:39.740Z,4.69
2017-09-29T07:47:39.727Z,4.59
2017-09-29T07:48:39.713Z,4.54
2017-09-29T07:49:39.707Z,4.55
2017-09-29T07:50:39.688Z,4.59
2017-09-29T07:51:39.675Z,4.63
2017-09-29T07:52:39.661Z,4.63
2017-09-29T07:53:39.648Z,4.65
2017-09-29T07:54:39.634Z,4.62
2017-09-29T07:55:39.621Z,4.73
2017-09-29T07:56:39.643Z,4.86
2017-09-29T07:57:39.595Z,4.94
2017-09-29T07:58:39.582Z,5.02
2017-09-29T07:59:39.567Z,4.89
2017-09-29T08:00:39.554Z,4.72
2017-09-29T08:01:39.541Z,4.70
2017-09-29T08:02:39.528Z,4.52
2017-09-29T08:03:39.513Z,4.47
2017-09-29T08:04:39.533Z,4.41
2017-09-29T08:05:39.487Z,4.44
2017-09-29T08:06:39.473Z,4.51
2017-09-29T08:07:39.459Z,4.44
2017-09-29T08:08:39.445Z,4.36
2017-09-29T08:09:39.439Z,4.42
2017-09-29T08:10:39.419Z,4.37
2017-09-29T08:11:39.404Z,4.40
2017-09-29T08:12:39.391Z,4.48
2017-09-29T08:13:39.382Z,4.41
2017-09-29T08:14:39.363Z,4.42
2017-09-29T08:15:39.355Z,4.44
2017-09-29T08:16:39.335Z,4.41
2017-09-29T08:17:39.323Z,4.41
2017-09-29T08:18:39.308Z,4.34
2017-09-29T08:19:39.292Z,4.29
2017-09-29T08:20:39.279Z,4.41
2017-09-29T08:21:39.264Z,4.29
2017-09-29T08:22:39.251Z,4.32
2017-09-29T08:23:39.236Z,4.36
2017-09-29T08:24:39.223Z,4.26
2017-09-29T08:25:39.208Z,4.12
2017-09-29T08:26:39.194Z,4.00
2017-09-29T08:27:39.180Z,3.86
2017-09-29T08:28:39.165Z,3.90
2017-09-29T08:29:39.152Z,3.76
2017-09-29T08:30:39.138Z,3.78
2017-09-29T08:31:39.122Z,3.80
2017-09-29T08:32:39.112Z,3.76
2017-09-29T08:33:39.093Z,3.79
2017-09-29T08:34:39.079Z,3.73
2017-09-29T08:35:39.065Z,3.83
2017-09-29T08:36:39.051Z,3.90
2017-09-29T08:37:39.036Z,3.88
2017-09-29T08:38:39.022Z,3.94
2017-09-29T08:39:39.007Z,4.11
2017-09-29T08:40:38.993Z,4.11
2017-09-29T08:41:38.979Z,4.09
2017-09-29T08:42:38.966Z,4.12
2017-09-29T08:43:38.949Z,4.20
2017-09-29T08:44:38.935Z,4.26
2017-09-29T08:45:38.921Z,4.32
2017-09-29T08:46:38.906Z,4.44
2017-09-29T08:47:38.929Z,4.44
2017-09-29T08:48:38.878Z,4.40
2017-09-29T08:49:38.864Z,4.40
2017-09-29T08:50:38.851Z,4.37
2017-09-29T08:51:38.836Z,4.45
2017-09-29T08:52:38.821Z,4.34
2017-09-29T08:53:38.808Z,4.47
2017-09-29T08:54:38.794Z,4.37
2017-09-29T08:55:38.779Z,4.40
2017-09-29T08:56:38.765Z,4.50
2017-09-29T08:57:38.751Z,4.42
2017-09-29T08:58:38.738Z,4.47
2017-09-29T08:59:38.758Z,4.60
2017-09-29T09:00:38.709Z,4.62
2017-09-29T09:01:38.695Z,4.50
2017-09-29T09:02:38.681Z,4.67
2017-09-29T09:03:38.667Z,4.58
2017-09-29T09:04:38.665Z,4.58
2017-09-29T09:05:38.644Z,4.58
2017-09-29T09:06:38.626Z,4.63
2017-09-29T09:07:38.611Z,4.59
2017-09-29T09:08:38.598Z,4.54
2017-09-29T09:09:38.584Z,4.59
2017-09-29T09:10:38.571Z,4.80
2017-09-29T09:11:38.557Z,4.70
2017-09-29T09:12:38.543Z,4.89
2017-09-29T09:13:38.529Z,5.00
2017-09-29T09:14:38.517Z,4.99
2017-09-29T09:15:38.502Z,5.03
2017-09-29T09:16:38.488Z,4.99
2017-09-29T09:17:38.476Z,5.02
2017-09-29T09:18:38.462Z,5.04
2017-09-29T09:19:38.449Z,4.99
2017-09-29T09:20:38.435Z,5.02
2017-09-29T09:21:38.423Z,5.04
2017-09-29T09:22:38.409Z,5.02
2017-09-29T09:23:38.396Z,4.99
2017-09-29T09:24:38.383Z,5.02
2017-09-29T09:25:38.369Z,5.00
2017-09-29T09:26:38.356Z,4.92
2017-09-29T09:27:38.360Z,4.85
2017-09-29T09:28:38.329Z,4.84
2017-09-29T09:29:38.316Z,5.02
2017-09-29T09:30:38.302Z,5.10
2017-09-29T09:31:38.288Z,5.10
2017-09-29T09:32:38.282Z,5.09
2017-09-29T09:33:38.263Z,5.04
2017-09-29T09:34:38.250Z,5.02
2017-09-29T09:35:38.236Z,5.06
2017-09-29T09:36:38.223Z,5.04
2017-09-29T09:37:38.209Z,4.97
2017-09-29T09:38:38.197Z,4.97
2017-09-29T09:39:38.184Z,4.86
2017-09-29T09:40:38.170Z,4.94
2017-09-29T09:41:38.157Z,4.92
2017-09-29T09:42:38.144Z,4.94
2017-09-29T09:43:38.130Z,5.02
2017-09-29T09:44:38.116Z,4.99
2017-09-29T09:45:38.103Z,5.02
2017-09-29T09:46:38.091Z,4.96
2017-09-29T09:47:38.077Z,4.92
2017-09-29T09:48:38.064Z,4.97
2017-09-29T09:49:38.051Z,4.92
2017-09-29T09:50:38.038Z,5.00
2017-09-29T09:51:38.025Z,5.20
2017-09-29T09:52:38.012Z,5.20
2017-09-29T09:53:37.999Z,5.21
2017-09-29T09:54:37.986Z,5.49
2017-09-29T09:55:37.972Z,5.81
2017-09-29T09:56:37.959Z,6.17
2017-09-29T09:57:37.947Z,6.22
2017-09-29T09:58:37.935Z,6.34
2017-09-29T09:59:37.921Z,6.34
2017-09-29T10:00:37.909Z,6.46
2017-09-29T10:01:37.897Z,6.74
2017-09-29T10:02:37.885Z,6.98
2017-09-29T10:03:37.872Z,7.28
2017-09-29T10:04:37.860Z,7.46
2017-09-29T10:05:37.848Z,7.68
2017-09-29T10:06:37.837Z,7.77
2017-09-29T10:07:37.826Z,8.00
2017-09-29T10:08:37.813Z,7.97
2017-09-29T10:09:37.802Z,7.87
2017-09-29T10:10:37.790Z,8.05
2017-09-29T10:11:37.778Z,8.15
2017-09-29T10:12:37.766Z,8.33
2017-09-29T10:13:37.755Z,8.56
2017-09-29T10:14:37.746Z,8.65
2017-09-29T10:15:37.732Z,8.71
2017-09-29T10:16:37.722Z,8.86
2017-09-29T10:17:37.710Z,8.70
2017-09-29T10:18:37.700Z,8.11
2017-09-29T10:19:37.689Z,7.63
2017-09-29T10:20:37.678Z,7.45
2017-09-29T10:21:37.674Z,6.89
2017-09-29T10:22:37.657Z,6.71
2017-09-29T10:23:37.645Z,6.61
2017-09-29T10:24:37.635Z,6.36
2017-09-29T10:25:37.623Z,6.41
2017-09-29T10:26:37.612Z,6.46
2017-09-29T10:27:37.601Z,6.37
2017-09-29T10:28:37.590Z,6.38
2017-09-29T10:29:37.580Z,6.34
2017-09-29T10:30:37.568Z,6.49
2017-09-29T10:31:37.558Z,6.84
2017-09-29T10:32:37.545Z,7.03
2017-09-29T10:33:37.535Z,7.53
2017-09-29T10:34:37.524Z,7.68
2017-09-29T10:35:37.513Z,8.01
2017-09-29T10:36:37.501Z,8.19
2017-09-29T10:37:37.491Z,8.45
2017-09-29T10:38:37.480Z,8.73
2017-09-29T10:39:37.468Z,8.87
2017-09-29T10:40:37.458Z,8.76
2017-09-29T10:41:37.447Z,8.70
2017-09-29T10:42:37.437Z,8.71
2017-09-29T10:43:37.425Z,8.74
2017-09-29T10:44:37.414Z,8.80
2017-09-29T10:45:37.404Z,9.02
2017-09-29T10:46:37.393Z,8.92
2017-09-29T10:47:37.382Z,8.92
2017-09-29T10:48:37.371Z,8.62
2017-09-29T10:49:37.361Z,8.62
2017-09-29T10:50:37.350Z,7.87
2017-09-29T10:51:37.339Z,7.63
2017-09-29T10:52:37.335Z,7.79
2017-09-29T10:53:37.319Z,7.92
2017-09-29T10:54:37.308Z,8.11
2017-09-29T10:55:37.296Z,8.34
2017-09-29T10:56:37.287Z,8.43
2017-09-29T10:57:37.276Z,8.55
2017-09-29T10:58:37.265Z,8.48
2017-09-29T10:59:37.255Z,8.52
2017-09-29T11:00:37.247Z,8.63
2017-09-29T11:01:37.234Z,8.91
2017-09-29T11:02:37.224Z,8.89
2017-09-29T11:03:37.212Z,8.89
2017-09-29T11:04:37.202Z,8.34
2017-09-29T11:05:37.193Z,7.69
2017-09-29T11:06:37.183Z,7.39
2017-09-29T11:07:37.172Z,7.09
2017-09-29T11:08:37.161Z,7.02
2017-09-29T11:09:37.150Z,6.95
2017-09-29T11:10:37.140Z,6.94
2017-09-29T11:11:37.129Z,6.80
2017-09-29T11:12:37.118Z,6.81
2017-09-29T11:13:37.108Z,6.70
2017-09-29T11:14:37.098Z,6.76
2017-09-29T11:15:37.086Z,6.71
2017-09-29T11:16:37.076Z,6.54
2017-09-29T11:17:37.080Z,6.62
2017-09-29T11:18:37.053Z,6.71
2017-09-29T11:19:37.042Z,6.87
2017-09-29T11:20:37.031Z,6.54
2017-09-29T11:21:37.021Z,6.67
2017-09-29T11:22:37.010Z,6.94
2017-09-29T11:23:36.998Z,6.98
2017-09-29T11:24:36.988Z,7.28
2017-09-29T11:25:36.977Z,7.30
2017-09-29T11:26:36.966Z,7.09
2017-09-29T11:27:36.953Z,6.80
2017-09-29T11:28:36.944Z,6.62
2017-09-29T11:29:36.933Z,6.59
2017-09-29T11:30:36.922Z,6.37
2017-09-29T11:31:36.910Z,6.54
2017-09-29T11:32:36.898Z,6.58
2017-09-29T11:33:36.888Z,6.59
2017-09-29T11:34:36.877Z,6.80
2017-09-29T11:35:36.865Z,6.81
2017-09-29T11:36:36.855Z,6.81
2017-09-29T11:37:36.843Z,6.56
2017-09-29T11:38:36.832Z,6.46
2017-09-29T11:39:36.820Z,6.58
2017-09-29T11:40:36.812Z,6.77
2017-09-29T11:41:36.798Z,7.16
2017-09-29T11:42:36.787Z,7.13
2017-09-29T11:43:36.775Z,7.15
2017-09-29T11:44:36.764Z,7.42
2017-09-29T11:45:36.754Z,7.28
2017-09-29T11:46:36.743Z,7.30
2017-09-29T11:47:36.731Z,7.12
2017-09-29T11:48:36.720Z,7.31
2017-09-29T11:49:36.709Z,7.25
2017-09-29T11:50:36.699Z,7.31
2017-09-29T11:51:36.687Z,7.35
2017-09-29T11:52:36.676Z,7.15
2017-09-29T11:53:36.667Z,6.91
2017-09-29T11:54:36.655Z,7.25
2017-09-29T11:55:36.652Z,7.37
2017-09-29T11:56:36.658Z,7.48
2017-09-29T11:57:36.622Z,7.42
2017-09-29T11:58:36.613Z,7.28
2017-09-29T11:59:36.600Z,7.25
2017-09-29T12:00:36.589Z,7.21
2017-09-29T12:01:36.579Z,7.17
2017-09-29T12:02:36.569Z,6.76
2017-09-29T12:03:36.556Z,6.85
2017-09-29T12:04:36.546Z,6.80
2017-09-29T12:05:36.535Z,6.91
2017-09-29T12:06:36.524Z,6.73
2017-09-29T12:07:36.514Z,6.69
2017-09-29T12:08:36.502Z,6.54
2017-09-29T12:09:36.491Z,6.28
2017-09-29T12:10:36.479Z,6.00
2017-09-29T12:11:36.467Z,5.82
2017-09-29T12:12:36.456Z,5.51
2017-09-29T12:13:36.446Z,5.45
2017-09-29T12:14:36.433Z,5.43
2017-09-29T12:15:36.420Z,5.46
2017-09-29T12:16:36.434Z,5.91
2017-09-29T12:17:36.398Z,6.06
2017-09-29T12:18:36.386Z,6.17
2017-09-29T12:19:36.373Z,5.79
2017-09-29T12:20:36.362Z,5.72
2017-09-29T12:21:36.350Z,5.85
2017-09-29T12:22:36.339Z,5.94
2017-09-29T12:23:36.325Z,6.17
2017-09-29T12:24:36.315Z,6.33
2017-09-29T12:25:36.303Z,6.46
2017-09-29T12:26:36.297Z,6.70
2017-09-29T12:27:36.278Z,6.70
2017-09-29T12:28:36.266Z,6.74
2017-09-29T12:29:36.254Z,6.69
2017-09-29T12:30:36.244Z,6.59
2017-09-29T12:31:36.231Z,6.49
2017-09-29T12:32:36.220Z,6.34
2017-09-29T12:33:36.208Z,6.41
2017-09-29T12:34:36.198Z,6.69
2017-09-29T12:35:36.188Z,6.64
2017-09-29T12:36:36.174Z,6.69
2017-09-29T12:37:36.161Z,6.92
2017-09-29T12:38:36.150Z,6.89
2017-09-29T12:39:36.139Z,6.89
2017-09-29T12:40:36.126Z,6.59
2017-09-29T12:41:36.116Z,6.54
2017-09-29T12:42:36.106Z,6.62
2017-09-29T12:43:36.091Z,6.62
2017-09-29T12:44:36.081Z,6.55
2017-09-29T12:45:36.068Z,6.41
2017-09-29T12:46:36.057Z,6.21
2017-09-29T12:47:36.050Z,6.31
2017-09-29T12:48:36.032Z,6.48
2017-09-29T12:49:36.021Z,6.66
2017-09-29T12:50:36.009Z,6.52
2017-09-29T12:51:36.001Z,6.44
2017-09-29T12:52:35.987Z,6.25
2017-09-29T12:53:35.974Z,6.01
2017-09-29T12:54:35.962Z,5.74
2017-09-29T12:55:35.950Z,5.74
2017-09-29T12:56:35.958Z,5.72
2017-09-29T12:57:35.927Z,5.53
2017-09-29T12:58:35.914Z,5.51
2017-09-29T12:59:35.902Z,5.58
2017-09-29T13:00:35.889Z,5.49
2017-09-29T13:01:35.878Z,5.45
2017-09-29T13:02:35.866Z,5.58
2017-09-29T13:03:35.853Z,5.57
2017-09-29T13:04:35.842Z,5.67
2017-09-29T13:05:35.836Z,5.60
2017-09-29T13:06:35.818Z,5.63
2017-09-29T13:07:35.804Z,5.57
2017-09-29T13:08:35.792Z,5.63
2017-09-29T13:09:35.781Z,5.60
2017-09-29T13:10:35.769Z,5.71
2017-09-29T13:11:35.756Z,5.85
2017-09-29T13:12:35.744Z,5.60
2017-09-29T13:13:35.732Z,5.64
2017-09-29T13:14:35.722Z,5.82
2017-09-29T13:15:35.708Z,5.86
2017-09-29T13:16:35.694Z,5.61
2017-09-29T13:17:35.683Z,5.79
2017-09-29T13:18:35.726Z,5.63
2017-09-29T13:19:35.764Z,5.48
2017-09-29T13:20:35.646Z,5.39